Time;durP1;ratioP1;P1;durP2;ratioP2;P2;SDS_P1;SDS_P2;PMS_P1;PMS_P2;Temp;Humidity;BMP_temperature;BMP_pressure;BME280_temperature;BME280_humidity;BME280_pressure;Samples;Min_cycle;Max_cycle;Signal;HPM_P1;HPM_P2
2022/02/08 00:03:45;;;;;;;4.50;1.70;;;;;;;;;;10368756;28;20042;-58
2022/02/08 00:08:46;;;;;;;2.90;1.60;;;;;;;;;;10367941;28;20030;-58
2022/02/08 00:13:46;;;;;;;4.00;1.73;;;;;;;;;;10367942;28;20057;-58
2022/02/08 00:18:47;;;;;;;2.58;1.73;;;;;;;;;;10368050;28;20543;-58
2022/02/08 00:23:47;;;;;;;3.70;1.50;;;;;;;;;;10365126;28;20088;-58
2022/02/08 00:28:48;;;;;;;3.97;1.80;;;;;;;;;;10364069;28;20026;-58
2022/02/08 00:33:48;;;;;;;7.10;1.65;;;;;;;;;;10367930;28;20042;-58
2022/02/08 00:38:50;;;;;;;3.37;1.87;;;;;;;;;;10367702;28;20112;-59
2022/02/08 00:43:58;;;;;;;5.78;2.00;;;;;;;;;;10367642;28;20499;-59
2022/02/08 00:49:01;;;;;;;5.45;2.10;;;;;;;;;;10367914;28;20101;-59
2022/02/08 00:54:02;;;;;;;2.42;1.80;;;;;;;;;;10367666;28;20121;-59
2022/02/08 00:59:03;;;;;;;5.60;2.25;;;;;;;;;;10367233;28;20390;-58
2022/02/08 01:04:08;;;;;;;3.53;1.92;;;;;;;;;;10366894;28;20033;-59
2022/02/08 01:09:16;;;;;;;3.45;1.73;;;;;;;;;;10367640;28;20112;-59
2022/02/08 01:14:17;;;;;;;3.65;1.80;;;;;;;;;;10366881;28;20050;-59
2022/02/08 01:19:20;;;;;;;5.18;1.85;;;;;;;;;;10373103;28;20033;-59
2022/02/08 01:24:21;;;;;;;3.58;1.77;;;;;;;;;;10373832;28;20425;-59
2022/02/08 01:29:25;;;;;;;5.33;1.53;;;;;;;;;;10367604;28;20088;-59
2022/02/08 01:34:41;;;;;;;5.68;1.80;;;;;;;;;;10373896;28;20458;-59
2022/02/08 01:39:58;;;;;;;5.63;2.05;;;;;;;;;;10374065;28;20057;-60
2022/02/08 01:50:20;;;;;;;3.45;2.08;;;;;;;;;;10373156;28;20030;-59
2022/02/08 01:55:21;;;;;;;3.95;2.00;;;;;;;;;;10372824;28;20466;-59
2022/02/08 02:00:21;;;;;;;4.03;2.10;;;;;;;;;;10373242;28;20032;-60
2022/02/08 02:05:22;;;;;;;2.83;1.60;;;;;;;;;;10372907;28;20113;-60
2022/02/08 02:10:23;;;;;;;4.38;2.30;;;;;;;;;;10372381;28;20109;-60
2022/02/08 02:15:24;;;;;;;3.15;2.28;;;;;;;;;;10371725;28;20371;-59
2022/02/08 02:20:25;;;;;;;3.20;1.85;;;;;;;;;;10372057;28;20026;-59
2022/02/08 02:25:28;;;;;;;3.47;2.20;;;;;;;;;;10370308;28;20044;-59
2022/02/08 02:30:34;;;;;;;3.92;2.63;;;;;;;;;;10367540;28;20076;-59
2022/02/08 02:35:35;;;;;;;4.95;2.45;;;;;;;;;;10368309;28;20018;-59
2022/02/08 02:40:36;;;;;;;2.35;2.10;;;;;;;;;;10371650;28;20030;-60
2022/02/08 02:45:37;;;;;;;4.55;2.85;;;;;;;;;;10371106;28;20060;-60
2022/02/08 02:50:38;;;;;;;3.78;2.25;;;;;;;;;;10371332;28;20036;-59
2022/02/08 02:55:38;;;;;;;3.08;2.22;;;;;;;;;;10370459;28;20033;-60
2022/02/08 03:00:45;;;;;;;4.00;2.00;;;;;;;;;;10370817;28;20018;-59
2022/02/08 03:21:29;;;;;;;2.90;2.00;;;;;;;;;;10370050;28;20030;-59
2022/02/08 03:26:29;;;;;;;5.85;2.78;;;;;;;;;;10369444;28;20030;-59
2022/02/08 03:31:29;;;;;;;2.67;2.40;;;;;;;;;;10369418;28;20022;-59
2022/02/08 03:36:30;;;;;;;2.55;2.13;;;;;;;;;;10362705;28;20467;-59
2022/02/08 03:41:39;;;;;;;2.97;2.33;;;;;;;;;;10368913;28;20596;-59
2022/02/08 03:46:40;;;;;;;;;;;;;;;;;;10369802;28;20022;-60
2022/02/08 03:51:58;;;;;;;5.78;2.08;;;;;;;;;;10368441;28;19917;-59
2022/02/08 03:56:59;;;;;;;2.88;2.20;;;;;;;;;;10368611;28;20034;-60
2022/02/08 04:07:54;;;;;;;;;;;;;;;;;;10368828;28;20410;-62
2022/02/08 04:12:56;;;;;;;3.25;2.28;;;;;;;;;;10367640;28;19917;-59
2022/02/08 04:49:10;;;;;;;6.50;2.10;;;;;;;;;;10367981;28;20548;-60
2022/02/08 04:54:18;;;;;;;3.57;2.50;;;;;;;;;;10373875;28;20117;-60
2022/02/08 05:46:51;;;;;;;2.38;2.17;;;;;;;;;;10369671;28;20090;-60
2022/02/08 05:56:55;;;;;;;3.65;2.28;;;;;;;;;;10373385;28;20389;-60
2022/02/08 06:01:55;;;;;;;3.13;2.22;;;;;;;;;;10371556;28;20117;-60
2022/02/08 06:07:00;;;;;;;3.35;2.25;;;;;;;;;;10372088;28;20033;-60
2022/02/08 06:12:01;;;;;;;2.35;2.00;;;;;;;;;;10372123;28;20184;-60
2022/02/08 06:17:01;;;;;;;7.05;2.58;;;;;;;;;;10372120;28;20200;-60
2022/02/08 06:22:02;;;;;;;4.82;2.22;;;;;;;;;;10371950;28;20159;-60
2022/02/08 06:27:02;;;;;;;4.32;1.90;;;;;;;;;;10372091;28;20049;-60
2022/02/08 06:32:03;;;;;;;7.93;1.73;;;;;;;;;;10371547;28;20025;-60
2022/02/08 06:37:10;;;;;;;3.55;1.70;;;;;;;;;;10371843;28;20026;-60
2022/02/08 06:42:11;;;;;;;7.55;2.55;;;;;;;;;;10371061;28;20034;-59
2022/02/08 06:47:12;;;;;;;4.25;2.30;;;;;;;;;;10366293;28;20033;-60
2022/02/08 06:52:12;;;;;;;6.55;2.38;;;;;;;;;;10370220;28;20026;-60
2022/02/08 06:57:12;;;;;;;3.80;1.80;;;;;;;;;;10366365;28;20462;-60
2022/02/08 07:02:13;;;;;;;5.35;2.20;;;;;;;;;;10369227;28;20451;-59
2022/02/08 07:07:16;;;;;;;23.70;4.03;;;;;;;;;;10370101;28;20096;-59
2022/02/08 07:12:16;;;;;;;7.00;2.50;;;;;;;;;;10369921;28;20474;-59
2022/02/08 07:17:16;;;;;;;8.67;2.27;;;;;;;;;;10368862;28;20048;-59
2022/02/08 07:22:17;;;;;;;14.10;2.77;;;;;;;;;;10369272;28;20493;-50
2022/02/08 07:27:17;;;;;;;16.27;3.30;;;;;;;;;;10369307;28;20113;-59
2022/02/08 07:32:19;;;;;;;17.00;3.40;;;;;;;;;;10367866;28;20029;-61
2022/02/08 07:37:34;;;;;;;19.63;3.38;;;;;;;;;;10367271;28;21007;-63
2022/02/08 07:42:34;;;;;;;7.80;3.45;;;;;;;;;;10368444;28;20022;-59
2022/02/08 07:47:35;;;;;;;15.30;2.70;;;;;;;;;;10368428;28;20030;-64
2022/02/08 07:52:35;;;;;;;5.50;2.90;;;;;;;;;;10368342;28;20539;-58
2022/02/08 07:57:35;;;;;;;9.90;3.23;;;;;;;;;;10364978;28;20029;-57
2022/02/08 08:02:36;;;;;;;9.80;2.83;;;;;;;;;;10365144;28;20026;-60
2022/02/08 08:07:37;;;;;;;7.05;3.20;;;;;;;;;;10368956;28;20619;-57
2022/02/08 08:12:38;;;;;;;11.70;3.13;;;;;;;;;;10367821;28;20041;-64
2022/02/08 08:18:00;;;;;;;9.02;3.10;;;;;;;;;;10367618;28;20466;-64
2022/02/08 08:23:00;;;;;;;7.22;3.35;;;;;;;;;;10367412;28;20129;-59
2022/02/08 08:28:00;;;;;;;7.73;3.70;;;;;;;;;;10372712;28;20136;-65
2022/02/08 08:33:02;;;;;;;10.47;3.60;;;;;;;;;;10375869;28;20037;-59
2022/02/08 08:38:05;;;;;;;7.35;3.40;;;;;;;;;;10375997;28;20432;-65
2022/02/08 08:48:41;;;;;;;8.35;3.95;;;;;;;;;;10375887;28;20029;-59
2022/02/08 08:53:43;;;;;;;13.43;4.22;;;;;;;;;;10375655;28;20084;-64
2022/02/08 08:58:44;;;;;;;8.85;3.85;;;;;;;;;;10372150;28;20754;-64
2022/02/08 09:03:47;;;;;;;10.95;3.80;;;;;;;;;;10375285;28;20026;-61
2022/02/08 09:08:47;;;;;;;9.70;3.58;;;;;;;;;;10371544;28;20132;-65
2022/02/08 09:19:11;;;;;;;4.33;2.93;;;;;;;;;;10374231;28;20025;-62
2022/02/08 09:29:39;;;;;;;;;;;;;;;;;;10374561;28;20477;-63
2022/02/08 09:34:41;;;;;;;6.45;3.58;;;;;;;;;;10373988;28;20291;-64
2022/02/08 09:39:43;;;;;;;10.50;3.92;;;;;;;;;;10373760;28;20025;-59
2022/02/08 09:44:43;;;;;;;6.28;3.45;;;;;;;;;;10373252;28;20261;-63
2022/02/08 09:49:53;;;;;;;7.32;3.63;;;;;;;;;;10356142;28;20260;-61
2022/02/08 09:54:53;;;;;;;8.63;3.70;;;;;;;;;;10373370;28;20052;-66
2022/02/08 09:59:53;;;;;;;7.20;3.77;;;;;;;;;;10372996;28;20080;-63
2022/02/08 10:05:01;;;;;;;6.47;3.15;;;;;;;;;;10369834;28;20522;-64
2022/02/08 10:10:06;;;;;;;6.63;2.80;;;;;;;;;;10372796;28;20080;-65
2022/02/08 10:41:25;;;;;;;9.02;3.47;;;;;;;;;;10371134;28;20034;-64
2022/02/08 10:46:26;;;;;;;7.40;3.35;;;;;;;;;;10370955;28;20037;-57
2022/02/08 10:51:27;;;;;;;9.35;3.33;;;;;;;;;;10370035;28;20061;-60
2022/02/08 10:56:31;;;;;;;4.57;3.10;;;;;;;;;;10370525;28;20022;-58
2022/02/08 11:01:35;;;;;;;7.95;2.85;;;;;;;;;;10370464;28;20381;-62
2022/02/08 11:07:09;;;;;;;6.13;2.85;;;;;;;;;;10370767;28;20397;-62
2022/02/08 11:12:22;;;;;;;6.03;2.80;;;;;;;;;;10367699;28;20038;-60
2022/02/08 11:23:22;;;;;;;8.30;3.45;;;;;;;;;;10282447;28;20039;-63
2022/02/08 11:28:31;;;;;;;7.70;2.97;;;;;;;;;;10282258;28;20090;-65
2022/02/08 11:50:27;;;;;;;7.90;2.65;;;;;;;;;;10241977;28;20547;-60
2022/02/08 11:55:45;;;;;;;5.88;3.25;;;;;;;;;;10275689;28;20038;-62
2022/02/08 12:00:58;;;;;;;5.60;2.95;;;;;;;;;;10321933;28;20042;-59
2022/02/08 12:06:51;;;;;;;5.13;3.20;;;;;;;;;;10321325;28;20049;-60
2022/02/08 12:49:23;;;;;;;;;;;;;;;;;;10368478;28;20034;-66
2022/02/08 12:54:28;;;;;;;5.10;2.92;;;;;;;;;;10366330;28;20332;-62
2022/02/08 14:09:12;;;;;;;;;;;;;;;;;;10372214;28;20038;-59
2022/02/08 14:19:35;;;;;;;3.65;2.55;;;;;;;;;;10371801;28;20637;-59
2022/02/08 14:24:50;;;;;;;5.07;2.97;;;;;;;;;;10366792;28;20030;-58
2022/02/08 14:29:57;;;;;;;16.10;3.10;;;;;;;;;;10367755;28;20424;-59
2022/02/08 15:12:15;;;;;;;3.90;2.50;;;;;;;;;;10369519;28;20129;-59
2022/02/08 15:17:16;;;;;;;3.17;2.08;;;;;;;;;;10369123;28;20130;-60
2022/02/08 15:22:17;;;;;;;3.05;2.40;;;;;;;;;;10368710;28;20124;-57
2022/02/08 15:27:20;;;;;;;5.35;2.38;;;;;;;;;;10368449;28;20034;-59
2022/02/08 15:32:22;;;;;;;6.05;2.75;;;;;;;;;;10365419;28;20470;-58
2022/02/08 15:37:22;;;;;;;6.82;2.60;;;;;;;;;;10367364;28;20087;-55
2022/02/08 15:42:30;;;;;;;5.00;2.50;;;;;;;;;;10365371;28;20087;-60
2022/02/08 15:47:30;;;;;;;8.40;2.95;;;;;;;;;;10368582;28;20462;-59
2022/02/08 15:53:01;;;;;;;4.97;2.83;;;;;;;;;;10368595;28;20485;-64
2022/02/08 16:08:46;;;;;;;3.28;2.58;;;;;;;;;;10367590;28;19913;-66
2022/02/08 16:14:00;;;;;;;5.93;2.75;;;;;;;;;;10367446;28;20516;-59
2022/02/08 16:56:22;;;;;;;;;;;;;;;;;;10375812;28;20037;-60
2022/02/08 17:01:22;;;;;;;4.35;2.90;;;;;;;;;;10370320;28;20465;-58
2022/02/08 17:06:25;;;;;;;5.70;2.83;;;;;;;;;;10373604;28;20034;-58
2022/02/08 17:11:38;;;;;;;5.50;2.65;;;;;;;;;;10374929;28;20124;-58
2022/02/08 17:17:02;;;;;;;4.68;2.50;;;;;;;;;;10374489;28;20409;-60
2022/02/08 17:48:37;;;;;;;;;;;;;;;;;;10369646;28;20310;-58
2022/02/08 17:53:38;;;;;;;9.43;3.20;;;;;;;;;;10368083;28;20510;-56
2022/02/08 17:58:40;;;;;;;9.13;2.73;;;;;;;;;;10372507;28;20026;-59
2022/02/08 18:03:41;;;;;;;7.55;3.20;;;;;;;;;;10369832;28;20459;-59
2022/02/08 18:08:41;;;;;;;9.88;3.60;;;;;;;;;;10372086;28;20033;-60
2022/02/08 18:13:44;;;;;;;5.68;3.47;;;;;;;;;;10372062;28;20516;-59
2022/02/08 18:18:45;;;;;;;8.23;3.47;;;;;;;;;;10369021;28;20248;-56
2022/02/08 18:50:14;;;;;;;7.57;4.38;;;;;;;;;;10370369;28;20030;-60
2022/02/08 18:50:48;;;;;;;;;;;;;;;;;;10370592;28;19965;-51
2022/02/08 19:21:57;;;;;;;24.60;10.75;;;;;;;;;;10369201;28;20049;-60
2022/02/08 19:26:59;;;;;;;24.70;10.60;;;;;;;;;;10369481;28;20026;-60
2022/02/08 19:32:01;;;;;;;22.45;9.40;;;;;;;;;;10367801;28;20045;-60
2022/02/08 19:37:06;;;;;;;16.77;8.35;;;;;;;;;;10369225;28;20137;-60
2022/02/08 19:42:07;;;;;;;18.60;8.88;;;;;;;;;;10368549;28;20125;-60
2022/02/08 19:47:08;;;;;;;14.18;8.23;;;;;;;;;;10367468;28;20040;-60
2022/02/08 19:52:09;;;;;;;16.70;7.85;;;;;;;;;;10368369;28;20462;-60
2022/02/08 19:57:17;;;;;;;12.60;7.32;;;;;;;;;;10364945;28;20113;-60
2022/02/08 20:02:19;;;;;;;10.77;6.57;;;;;;;;;;10364813;28;20085;-60
2022/02/08 20:07:19;;;;;;;11.57;7.03;;;;;;;;;;10367174;28;20092;-60
2022/02/08 20:12:20;;;;;;;13.95;6.88;;;;;;;;;;10367382;28;20065;-60
2022/02/08 20:17:20;;;;;;;12.80;6.60;;;;;;;;;;10367463;28;20022;-60
2022/02/08 20:22:21;;;;;;;23.10;7.03;;;;;;;;;;10366941;28;20518;-60
2022/02/08 20:32:22;;;;;;;13.87;6.23;;;;;;;;;;10367945;28;20034;-60
2022/02/08 20:37:22;;;;;;;15.30;7.25;;;;;;;;;;10367780;28;20021;-61
2022/02/08 20:42:25;;;;;;;11.83;6.23;;;;;;;;;;10366689;28;20411;-59
2022/02/08 20:47:27;;;;;;;14.80;6.43;;;;;;;;;;10367529;28;20468;-60
2022/02/08 20:52:29;;;;;;;10.35;5.93;;;;;;;;;;10366583;28;20482;-60
2022/02/08 20:57:36;;;;;;;11.70;6.47;;;;;;;;;;10366373;28;20040;-60
2022/02/08 21:02:40;;;;;;;10.05;5.80;;;;;;;;;;10362940;28;20044;-60
2022/02/08 21:07:40;;;;;;;13.00;6.55;;;;;;;;;;10363116;28;20442;-60
2022/02/08 21:12:42;;;;;;;13.00;5.70;;;;;;;;;;10366249;28;20117;-63
2022/02/08 21:17:43;;;;;;;12.50;6.25;;;;;;;;;;10334662;28;20037;-63
2022/02/08 21:22:43;;;;;;;12.70;6.18;;;;;;;;;;10331723;28;20443;-62
2022/02/08 21:27:51;;;;;;;12.67;6.27;;;;;;;;;;10331070;28;20315;-60
2022/02/08 21:33:14;;;;;;;17.77;6.32;;;;;;;;;;10331516;28;20761;-62
2022/02/08 21:53:55;;;;;;;11.05;6.72;;;;;;;;;;10338608;28;20117;-62
2022/02/08 21:58:55;;;;;;;14.23;6.63;;;;;;;;;;10337778;28;20465;-66
2022/02/08 22:03:56;;;;;;;14.37;7.53;;;;;;;;;;10335263;28;20026;-64
2022/02/08 22:08:58;;;;;;;11.52;7.00;;;;;;;;;;10337673;28;20460;-66
2022/02/08 22:19:55;;;;;;;12.32;7.28;;;;;;;;;;10337801;28;20041;-62
2022/02/08 22:25:01;;;;;;;11.70;7.22;;;;;;;;;;10337151;28;20123;-64
2022/02/08 22:35:28;;;;;;;18.85;8.23;;;;;;;;;;10337074;28;20295;-62
2022/02/08 22:40:31;;;;;;;18.60;8.70;;;;;;;;;;10339654;28;20042;-62
2022/02/08 22:45:33;;;;;;;13.85;8.07;;;;;;;;;;10367197;28;20584;-61
2022/02/08 22:50:34;;;;;;;23.75;8.80;;;;;;;;;;10369402;28;20029;-60
2022/02/08 22:55:35;;;;;;;18.23;8.35;;;;;;;;;;10370178;28;20370;-60
2022/02/08 23:00:40;;;;;;;16.43;7.30;;;;;;;;;;10370674;28;20045;-59
2022/02/08 23:05:41;;;;;;;18.35;7.95;;;;;;;;;;10370479;28;20559;-60
2022/02/08 23:37:18;;;;;;;14.55;7.60;;;;;;;;;;10366327;28;19914;-59
2022/02/08 23:42:21;;;;;;;19.10;6.63;;;;;;;;;;10367881;28;20373;-59
2022/02/08 23:47:32;;;;;;;11.85;7.20;;;;;;;;;;10366692;28;20463;-59
2022/02/08 23:52:37;;;;;;;12.27;6.63;;;;;;;;;;10367606;28;20030;-59
2022/02/08 23:57:38;;;;;;;10.68;6.78;;;;;;;;;;10367252;28;20029;-59
